Aeroporto :
LOGIN :

Iscrizione | Disclaimer

   EN    FR    IT 

 










Sommario :    VFR   VFR Marginale   IFR   IFR Intensivo   IFR Molto Intensivo
Visibilità : 
Base nubi : 
>= 8 km
>= 3000ft
5 / 8 km
1000 / 3000 ft
1500m / 5 km
500 / 1000 ft
800 / 1500m
200 / 500 ft
< 800m
< 200 ft
Simboli :   Temporali  Nebbia  Neve Forte  Precipitazioni Forti  Vento > 20 kt
SIGMETs :   Varie  Temporali  Ghiacco  Turbolenza  Onda orograficha  Ceneri Vulcaniche







- Altitudine del aeroporto : 197 ft
- Codice IATA : XOG
- Carte del aeroporto


LFMO - Orange

ULTIMO METAR :
  • 221700Z AUTO 35006KT CAVOK 04/M04 Q1005 NOSIG

METARs OBSOLETI :
  • 221630Z AUTO 30008KT 270V330 CAVOK 05/M04 Q1005 NOSIG
  • 221600Z AUTO 29005KT 270V330 CAVOK 06/M04 Q1005 BECMG 34015KT
  • 221530Z AUTO 27004KT 190V320 CAVOK 06/M06 Q1005 BECMG 34015KT
  • 221500Z AUTO 34008KT CAVOK 07/M05 Q1005 NOSIG
  • 221430Z AUTO 34011KT CAVOK 08/M04 Q1005 NOSIG

TAF TAF LFMO
Valido dal 22 a 15 ore il 23 a 15 ore UTC


221400Z 2215/2315 34015KT CAVOK
BECMG 2221/2223 4000 FZRA
PROB40
TEMPO 2300/2302 2000 SN
BECMG 2302/2304 9999 NSW
TEMPO 2313/2315 3000 SNRA SCT015 BKN030TCU
PROB30 2314/2315 2000 SHSN
Nessun NOTAM noto per questo aeroporto.



MetMap, La meteo Aeronautica in un colpo d'occhio ! - Copyright ORBIFLY Dicembre 2007 - Disclaimer

ORBIFLY MET'MAP TEAM :

Programmazione e sviluppo : Alexandra Zaïnal
Concezione e sviluppo : Baudouin d'Aumeries
Co-Programmazione e sviluppo : Marc-Olivier Méhu
Supporto tecnico e logistico : Manuel Goepfert
Aiuto per la traduzione : Arnaldo La Scala

Contatto : metmap@orbifly.com




FONTI E CREDITI :

   NOAA